createdAt,value
2022-09-10T00:02:39.028Z,14.8
2022-09-10T00:17:38.997Z,14.8
2022-09-10T00:32:39.003Z,14.8
2022-09-10T00:47:38.998Z,14.9
2022-09-10T01:02:39.003Z,14.8
2022-09-10T01:17:39.015Z,14.8
2022-09-10T01:32:39.007Z,14.6
2022-09-10T01:47:39.000Z,14.6
2022-09-10T02:02:39.000Z,14.4
2022-09-10T02:17:39.004Z,14.3
2022-09-10T02:32:39.003Z,14.4
2022-09-10T02:47:39.041Z,14.4
2022-09-10T03:02:39.001Z,14.4
2022-09-10T03:17:39.004Z,14.4
2022-09-10T03:32:39.006Z,14.5
2022-09-10T03:47:39.003Z,14.6
2022-09-10T04:02:38.997Z,14.6
2022-09-10T04:17:39.002Z,14.6
2022-09-10T04:32:39.014Z,14.6
2022-09-10T04:47:39.004Z,14.7
2022-09-10T05:02:39.005Z,14.8
2022-09-10T05:17:38.996Z,14.8
2022-09-10T05:32:38.999Z,14.9
2022-09-10T05:47:39.004Z,14.9
2022-09-10T06:02:39.105Z,15
2022-09-10T06:17:39.003Z,15.1
2022-09-10T06:32:39.007Z,15.2
2022-09-10T06:48:19.063Z,15.2
2022-09-10T07:02:39.001Z,15.1
2022-09-10T07:17:39.012Z,14.9
2022-09-10T07:32:39.017Z,15.1
2022-09-10T07:47:38.996Z,15.2
2022-09-10T08:02:39.012Z,15.4
2022-09-10T08:17:39.005Z,15.6
2022-09-10T08:32:38.999Z,15.5
2022-09-10T08:47:39.012Z,15.6
2022-09-10T09:02:48.649Z,15.8
2022-09-10T09:17:39.004Z,15.9
2022-09-10T09:32:39.005Z,15.9
2022-09-10T09:47:39.004Z,16
2022-09-10T10:02:39.049Z,16
2022-09-10T10:17:39.004Z,16
2022-09-10T10:32:39.010Z,16.2
2022-09-10T10:47:39.014Z,16.3
2022-09-10T11:02:39.042Z,16.6
2022-09-10T11:17:39.014Z,16.8
2022-09-10T11:32:39.053Z,16.2
2022-09-10T11:47:39.009Z,16.3
2022-09-10T12:02:39.020Z,15.3
2022-09-10T12:17:39.000Z,15.6
2022-09-10T12:32:39.011Z,16.1
2022-09-10T12:47:39.002Z,16.3
2022-09-10T13:02:39.013Z,16.3
2022-09-10T13:17:39.010Z,16.4
2022-09-10T13:32:39.006Z,16.7
2022-09-10T13:47:39.010Z,17.1
2022-09-10T14:02:39.046Z,17
2022-09-10T14:17:39.008Z,17.2
2022-09-10T14:32:39.010Z,17.5
2022-09-10T14:47:39.017Z,17.9
2022-09-10T15:02:38.999Z,18.9
2022-09-10T15:17:39.009Z,19.6
2022-09-10T15:32:39.003Z,19
2022-09-10T15:47:38.999Z,18
2022-09-10T16:02:39.067Z,16.6
2022-09-10T16:17:39.016Z,15.6
2022-09-10T16:32:39.010Z,15.6
2022-09-10T16:47:39.004Z,15.7
2022-09-10T17:02:39.051Z,15.8
2022-09-10T17:17:39.012Z,15.7
2022-09-10T17:32:39.019Z,15.7
2022-09-10T17:47:39.015Z,15.5
2022-09-10T18:02:39.053Z,15.3
2022-09-10T18:17:39.035Z,15.2
2022-09-10T18:32:39.018Z,15.1
2022-09-10T18:47:44.378Z,15.1
2022-09-10T19:02:39.147Z,15
2022-09-10T19:17:39.010Z,14.9
2022-09-10T19:32:39.019Z,15
2022-09-10T19:47:39.008Z,14.9
2022-09-10T20:02:39.045Z,15.1
2022-09-10T20:17:39.003Z,15.2
2022-09-10T20:32:39.006Z,15.2
2022-09-10T20:47:39.003Z,15.2
2022-09-10T21:02:39.037Z,15.2
2022-09-10T21:17:39.070Z,15.2
2022-09-10T21:32:39.002Z,15.2
2022-09-10T21:47:38.999Z,15.2
2022-09-10T22:02:39.062Z,15.2
2022-09-10T22:17:39.010Z,15
2022-09-10T22:32:39.014Z,14.9
2022-09-10T22:47:39.019Z,14.8
2022-09-10T23:02:39.015Z,14.6
2022-09-10T23:17:39.000Z,14.6
2022-09-10T23:32:39.018Z,14.4
2022-09-10T23:47:39.005Z,14.3
